createdAt,value
2024-03-06T00:00:02.192Z,98.5
2024-03-06T00:01:32.774Z,98.4
2024-03-06T00:03:03.474Z,98.3
2024-03-06T00:04:34.009Z,98.4
2024-03-06T00:06:04.788Z,98.5
2024-03-06T00:07:35.388Z,98.7
2024-03-06T00:09:06.049Z,98.6
2024-03-06T00:10:36.604Z,98.7
2024-03-06T00:12:07.163Z,98.3
2024-03-06T00:13:37.701Z,98.7
2024-03-06T00:15:08.377Z,98.7
2024-03-06T00:16:38.907Z,98.6
2024-03-06T00:18:09.432Z,98.5
2024-03-06T00:19:40.059Z,98.6
2024-03-06T00:21:10.533Z,98.7
2024-03-06T00:22:41.125Z,98.5
2024-03-06T00:24:11.673Z,98.5
2024-03-06T00:25:42.231Z,98.8
2024-03-06T00:27:12.837Z,98.7
2024-03-06T00:28:43.392Z,98.7
2024-03-06T00:30:14.019Z,98.3
2024-03-06T00:31:44.561Z,98.6
2024-03-06T00:33:15.064Z,98.5
2024-03-06T00:34:45.700Z,98.5
2024-03-06T00:36:16.229Z,98.5
2024-03-06T00:37:46.768Z,98.7
2024-03-06T00:39:17.213Z,98.7
2024-03-06T00:40:47.778Z,98.6
2024-03-06T00:42:18.359Z,98.3
2024-03-06T00:43:48.838Z,98.5
2024-03-06T00:45:19.374Z,98.6
2024-03-06T00:46:49.851Z,98.4
2024-03-06T00:48:20.461Z,98.8
2024-03-06T00:49:50.928Z,98.7
2024-03-06T00:51:36.564Z,98.6
2024-03-06T00:53:18.530Z,98.5
2024-03-06T00:54:49.158Z,98.7
2024-03-06T00:56:19.647Z,98.6
2024-03-06T00:57:50.129Z,98.5
2024-03-06T00:59:20.641Z,98.8
2024-03-06T01:00:51.225Z,98.5
2024-03-06T01:02:21.870Z,98.3
2024-03-06T01:03:52.412Z,98.6
2024-03-06T01:05:26.149Z,98.4
2024-03-06T01:06:57.027Z,98.6
2024-03-06T01:08:27.523Z,98.5
2024-03-06T01:09:58.052Z,98.3
2024-03-06T01:11:28.636Z,98.1
2024-03-06T01:12:59.528Z,98.6
2024-03-06T01:14:30.094Z,98.4
2024-03-06T01:16:00.631Z,98.6
2024-03-06T01:17:31.111Z,98.6
2024-03-06T01:19:01.653Z,98.6
2024-03-06T01:20:32.168Z,98.2
2024-03-06T01:22:02.670Z,98.8
2024-03-06T01:23:33.168Z,98.5
2024-03-06T01:25:03.676Z,98.3
2024-03-06T01:26:34.136Z,98.2
2024-03-06T01:28:04.664Z,98.2
2024-03-06T01:29:35.183Z,98.1
2024-03-06T01:31:05.700Z,98.2
2024-03-06T01:32:36.189Z,98.4
2024-03-06T01:34:06.654Z,98.2
2024-03-06T01:35:37.070Z,98.1
2024-03-06T01:37:07.494Z,98.3
2024-03-06T01:38:38.046Z,98.1
2024-03-06T01:40:08.529Z,98.5
2024-03-06T01:41:38.992Z,98.4
2024-03-06T01:41:55.948Z,98.3
2024-03-06T01:43:26.834Z,98.5
2024-03-06T01:44:57.421Z,98.7
2024-03-06T01:46:27.869Z,98.8
2024-03-06T01:47:58.534Z,98.4
2024-03-06T01:49:40.818Z,98.6
2024-03-06T01:51:15.572Z,98.4
2024-03-06T01:52:46.104Z,98.2
2024-03-06T01:54:16.680Z,98.3
2024-03-06T01:55:47.228Z,98.2
2024-03-06T01:57:17.689Z,98.3
2024-03-06T01:58:48.374Z,98.6
2024-03-06T02:00:18.858Z,98.3
2024-03-06T02:01:49.414Z,98.2
2024-03-06T02:03:20.259Z,98.5
2024-03-06T02:04:50.739Z,98.1
2024-03-06T02:06:21.230Z,98.2
2024-03-06T02:07:51.767Z,98.3
2024-03-06T02:09:22.273Z,98.1
2024-03-06T02:10:52.835Z,98.5
2024-03-06T02:12:23.304Z,98.3
2024-03-06T02:13:53.874Z,98.1
2024-03-06T02:15:24.343Z,98.4
2024-03-06T02:16:54.861Z,98.4
2024-03-06T02:18:25.662Z,98.7
2024-03-06T02:19:56.674Z,98.7
2024-03-06T02:21:27.211Z,98.6
2024-03-06T02:22:57.687Z,98.4
2024-03-06T02:24:28.155Z,98.5
2024-03-06T02:25:58.694Z,98.3
2024-03-06T02:27:29.133Z,98.7
2024-03-06T02:28:59.630Z,98.5
2024-03-06T02:30:30.190Z,98.5
2024-03-06T02:32:00.779Z,98.6
2024-03-06T02:33:31.376Z,98.3
2024-03-06T02:35:01.914Z,98.6
2024-03-06T02:36:32.475Z,98.5
2024-03-06T02:38:03.086Z,98.3
2024-03-06T02:39:33.797Z,98.3
2024-03-06T02:41:04.437Z,98.5
2024-03-06T02:42:34.971Z,98.4
2024-03-06T02:44:09.737Z,98.3
2024-03-06T02:45:40.944Z,98.3
2024-03-06T02:47:11.538Z,98.7
2024-03-06T02:48:42.108Z,98.7
2024-03-06T02:50:12.811Z,98.7
2024-03-06T02:51:43.431Z,98.9
2024-03-06T02:53:14.069Z,98.9
2024-03-06T02:54:44.722Z,98.6
2024-03-06T02:56:15.275Z,98.6
2024-03-06T02:57:45.827Z,98.5
2024-03-06T02:59:16.531Z,98.4
2024-03-06T03:00:47.088Z,98.7
2024-03-06T03:03:15.386Z,98.7
2024-03-06T03:04:45.899Z,98.6
2024-03-06T03:06:16.509Z,98.8
2024-03-06T03:07:46.994Z,98.6
2024-03-06T03:09:17.449Z,98.6
2024-03-06T03:10:47.962Z,98.6
2024-03-06T03:12:18.479Z,98.7
2024-03-06T03:13:49.003Z,98.5
2024-03-06T03:15:19.521Z,98.1
2024-03-06T03:16:50.069Z,98.4
2024-03-06T03:18:20.577Z,98.4
2024-03-06T03:19:51.047Z,98.3
2024-03-06T03:21:21.533Z,98.4
2024-03-06T03:22:51.967Z,98.4
2024-03-06T03:24:22.459Z,98.2
2024-03-06T03:25:52.973Z,98.4
2024-03-06T03:27:23.514Z,98.6
2024-03-06T03:28:54.001Z,98.5
2024-03-06T03:30:24.447Z,98.5
2024-03-06T03:31:54.908Z,98.7
2024-03-06T03:33:25.494Z,98.4
2024-03-06T03:34:55.972Z,98.4
2024-03-06T03:36:26.425Z,98.2
2024-03-06T03:37:56.911Z,98.5
2024-03-06T03:39:27.584Z,98.5
2024-03-06T03:40:58.092Z,98.5
2024-03-06T03:42:28.660Z,98.5
2024-03-06T03:43:59.245Z,98.5
2024-03-06T03:45:29.657Z,98.6
2024-03-06T03:47:00.098Z,98.7
2024-03-06T03:48:30.509Z,98.5
2024-03-06T03:50:11.520Z,98.5
2024-03-06T03:51:42.442Z,98.7
2024-03-06T03:53:13.002Z,98.7
2024-03-06T03:54:43.453Z,98.6
2024-03-06T03:56:14.171Z,98.5
2024-03-06T03:57:44.706Z,98.7
2024-03-06T03:59:15.234Z,98.3
2024-03-06T04:00:46.072Z,98.1
2024-03-06T04:02:16.526Z,98.6
2024-03-06T04:03:47.298Z,98.7
2024-03-06T04:05:17.965Z,98.4
2024-03-06T04:06:48.563Z,98.6
2024-03-06T04:08:19.060Z,98.5
2024-03-06T04:09:49.600Z,98.6
2024-03-06T04:11:20.401Z,98.5
2024-03-06T04:12:50.976Z,98.7
2024-03-06T04:14:21.442Z,98.5
2024-03-06T04:15:52.056Z,98.3
2024-03-06T04:17:22.599Z,98.7
2024-03-06T04:18:53.147Z,98.6
2024-03-06T04:20:23.601Z,98.7
2024-03-06T04:21:54.082Z,98.3
2024-03-06T04:23:24.626Z,98.6
2024-03-06T04:24:55.048Z,98.4
2024-03-06T04:26:25.521Z,98.6
2024-03-06T04:27:56.019Z,98.4
2024-03-06T04:29:26.509Z,98.4
2024-03-06T04:30:56.970Z,98.6
2024-03-06T04:32:27.500Z,98.6
2024-03-06T04:33:58.169Z,98.7
2024-03-06T04:35:28.635Z,98.5
2024-03-06T04:36:59.113Z,98.4
2024-03-06T04:38:29.523Z,98.7
2024-03-06T04:40:00.181Z,98.5
2024-03-06T04:41:30.576Z,98.6
2024-03-06T04:43:00.990Z,98.3
2024-03-06T04:44:31.410Z,98.4
2024-03-06T04:46:01.829Z,98.4
2024-03-06T04:47:32.336Z,98.3
2024-03-06T04:49:02.884Z,98.3
2024-03-06T04:50:33.299Z,98.6
2024-03-06T04:52:03.721Z,98.2
2024-03-06T04:53:51.049Z,98.7
2024-03-06T04:55:21.448Z,98.4
2024-03-06T04:56:51.945Z,98.6
2024-03-06T04:58:22.447Z,98.4
2024-03-06T04:59:52.915Z,98.4
2024-03-06T05:01:23.377Z,98.7
2024-03-06T05:58:57.323Z,98.7
2024-03-06T06:00:27.806Z,98.5
2024-03-06T06:01:58.345Z,98.6
2024-03-06T06:03:28.797Z,98.6
2024-03-06T06:05:22.888Z,98.4
2024-03-06T06:06:54.829Z,98.8
2024-03-06T06:08:25.360Z,98.7
2024-03-06T06:09:55.889Z,98.6
2024-03-06T06:11:26.367Z,98.6
2024-03-06T06:12:56.811Z,98.7
2024-03-06T06:14:27.360Z,98.6
2024-03-06T06:15:57.861Z,98.5
2024-03-06T06:17:28.394Z,98.3
2024-03-06T06:18:59.051Z,98.5
2024-03-06T06:20:29.697Z,98.7
2024-03-06T06:22:00.149Z,98.6
2024-03-06T06:23:30.766Z,98.4
2024-03-06T06:25:01.248Z,98.6
2024-03-06T06:26:31.740Z,98.3
2024-03-06T06:28:02.345Z,98.4
2024-03-06T06:29:32.990Z,98.3
2024-03-06T06:31:03.600Z,98.3
2024-03-06T06:32:34.376Z,98.5
2024-03-06T06:34:05.604Z,98.3
2024-03-06T06:35:36.260Z,98.6
2024-03-06T06:37:06.806Z,98.4
2024-03-06T06:38:37.318Z,98.3
2024-03-06T06:40:08.268Z,98.7
2024-03-06T06:41:38.870Z,98.6
2024-03-06T06:41:55.900Z,98.5
2024-03-06T06:43:26.327Z,98.5
2024-03-06T06:44:56.838Z,98.5
2024-03-06T06:46:27.357Z,98.3
2024-03-06T06:47:57.986Z,98.3
2024-03-06T06:49:28.505Z,98.4
2024-03-06T06:50:58.918Z,98.3
2024-03-06T06:52:29.363Z,98.5
2024-03-06T06:54:02.070Z,98.6
2024-03-06T06:55:32.533Z,98.3
2024-03-06T06:57:02.970Z,98.6
2024-03-06T06:58:33.400Z,98.4
2024-03-06T07:00:03.920Z,98.3
2024-03-06T07:01:34.428Z,98.3
2024-03-06T07:03:04.862Z,98.4
2024-03-06T07:04:35.273Z,98.6
2024-03-06T07:06:05.737Z,98.3
2024-03-06T07:07:36.234Z,98.5
2024-03-06T07:09:06.730Z,98.6
2024-03-06T07:10:37.183Z,98.6
2024-03-06T07:12:07.624Z,98.3
2024-03-06T07:13:38.088Z,98.6
2024-03-06T07:15:09.260Z,98.4
2024-03-06T07:16:39.866Z,98.7
2024-03-06T07:18:10.316Z,98.4
2024-03-06T07:19:40.900Z,98.2
2024-03-06T07:21:11.372Z,98.4
2024-03-06T07:22:41.951Z,98.7
2024-03-06T07:24:12.828Z,98.4
2024-03-06T07:25:43.355Z,98.6
2024-03-06T07:27:13.848Z,98.6
2024-03-06T07:28:44.251Z,98.4
2024-03-06T07:30:16.202Z,98.8
2024-03-06T07:31:46.737Z,98.5
2024-03-06T07:33:17.156Z,98.6
2024-03-06T07:34:47.659Z,98.6
2024-03-06T07:36:18.202Z,98.4
2024-03-06T07:37:48.607Z,98.4
2024-03-06T07:39:19.028Z,98.6
2024-03-06T07:40:49.568Z,98.6
2024-03-06T07:42:19.979Z,98.2
2024-03-06T07:43:50.393Z,98.4
2024-03-06T07:45:21.010Z,98.6
2024-03-06T07:46:51.433Z,98.2
2024-03-06T07:48:21.914Z,98.4
2024-03-06T07:49:52.386Z,98.5
2024-03-06T07:51:22.798Z,98.5
2024-03-06T07:52:53.214Z,98.6
2024-03-06T07:54:23.655Z,98.6
2024-03-06T07:55:54.067Z,98.7
2024-03-06T07:57:24.484Z,98.7
2024-03-06T07:58:54.911Z,98.5
2024-03-06T08:00:25.623Z,98.3
2024-03-06T08:01:56.321Z,98.2
2024-03-06T08:03:27.239Z,98.2
2024-03-06T08:04:57.817Z,98.4
2024-03-06T08:06:28.249Z,98.1
2024-03-06T08:07:58.688Z,98.6
2024-03-06T08:09:29.287Z,98.4
2024-03-06T08:10:59.858Z,98.7
2024-03-06T08:12:30.523Z,98.6
2024-03-06T08:14:01.370Z,98.2
2024-03-06T08:15:32.590Z,98.6
2024-03-06T08:17:03.157Z,98.4
2024-03-06T08:18:33.850Z,98.7
2024-03-06T08:20:04.313Z,98.3
2024-03-06T08:21:34.790Z,98.6
2024-03-06T08:23:05.260Z,98.4
2024-03-06T08:24:35.833Z,98.6
2024-03-06T08:26:06.303Z,97.9
2024-03-06T08:27:36.892Z,98.3
2024-03-06T08:29:07.356Z,98.1
2024-03-06T08:30:37.909Z,98.4
2024-03-06T08:30:54.820Z,98.4
2024-03-06T08:32:25.395Z,98.4
2024-03-06T08:33:56.257Z,98.5
2024-03-06T08:35:26.882Z,98.2
2024-03-06T08:36:57.375Z,98.7
2024-03-06T08:38:28.039Z,98.6
2024-03-06T08:39:58.615Z,98.4
2024-03-06T08:41:29.127Z,98.3
2024-03-06T08:42:59.718Z,98.5
2024-03-06T08:44:30.219Z,98.3
2024-03-06T08:46:00.889Z,98.3
2024-03-06T08:47:31.604Z,98.4
2024-03-06T08:49:08.841Z,98.6
2024-03-06T08:50:41.109Z,98.1
2024-03-06T08:52:12.071Z,97.9
2024-03-06T08:53:42.826Z,98.2
2024-03-06T08:55:13.551Z,98.4
2024-03-06T08:56:44.159Z,98.7
2024-03-06T08:58:14.801Z,98.4
2024-03-06T08:59:45.383Z,98.5
2024-03-06T09:03:20.253Z,98.3
2024-03-06T09:04:50.903Z,98.2
2024-03-06T09:06:21.330Z,98.5
2024-03-06T09:07:51.980Z,98.4
2024-03-06T09:09:22.461Z,98.3
2024-03-06T09:10:52.918Z,98.6
2024-03-06T09:12:23.510Z,98.1
2024-03-06T09:13:54.128Z,98.2
2024-03-06T09:15:24.598Z,98.4
2024-03-06T09:16:55.084Z,98.6
2024-03-06T09:18:25.704Z,98.3
2024-03-06T09:20:10.080Z,98.3
2024-03-06T09:21:42.321Z,98.5
2024-03-06T09:23:12.848Z,98.3
2024-03-06T09:24:43.359Z,98.4
2024-03-06T09:26:14.053Z,98.4
2024-03-06T09:27:44.669Z,98.3
2024-03-06T09:29:15.137Z,98.3
2024-03-06T09:30:45.555Z,98.3
2024-03-06T09:32:19.500Z,98
2024-03-06T09:33:50.811Z,98.1
2024-03-06T09:35:21.600Z,98.4
2024-03-06T09:36:52.146Z,98.2
2024-03-06T09:38:22.704Z,98.2
2024-03-06T09:39:53.317Z,98.1
2024-03-06T09:41:23.878Z,98
2024-03-06T09:42:54.596Z,98.2
2024-03-06T09:44:25.164Z,97.8
2024-03-06T09:45:55.586Z,98.2
2024-03-06T09:47:26.574Z,98.3
2024-03-06T09:48:57.435Z,98.2
2024-03-06T09:50:28.419Z,98.4
2024-03-06T09:52:01.950Z,98.1
2024-03-06T09:53:32.483Z,97.9
2024-03-06T09:55:03.036Z,98
2024-03-06T09:56:33.499Z,98.1
2024-03-06T09:58:04.090Z,97.9
2024-03-06T09:59:34.674Z,97.9
2024-03-06T10:01:05.217Z,98.2
2024-03-06T10:02:35.821Z,97.7
2024-03-06T10:04:06.650Z,97.5
2024-03-06T10:05:37.382Z,98
2024-03-06T10:07:07.815Z,97.6
2024-03-06T10:08:38.408Z,97.6
2024-03-06T10:10:09.004Z,97.8
2024-03-06T10:11:39.598Z,97.8
2024-03-06T10:13:10.219Z,98
2024-03-06T10:14:40.819Z,97.8
2024-03-06T10:16:11.507Z,97.8
2024-03-06T10:17:43.282Z,97.7
2024-03-06T10:19:17.017Z,98
2024-03-06T10:20:47.623Z,98.3
2024-03-06T10:22:18.269Z,98.2
2024-03-06T10:23:48.768Z,98.1
2024-03-06T10:25:19.323Z,98
2024-03-06T10:26:49.798Z,98.2
2024-03-06T10:28:20.455Z,97.9
2024-03-06T10:29:50.942Z,97.9
2024-03-06T10:31:21.415Z,97.7
2024-03-06T10:32:52.138Z,97.9
2024-03-06T10:34:22.852Z,97.7
2024-03-06T10:35:57.269Z,97.6
2024-03-06T10:37:29.748Z,97.9
2024-03-06T10:39:00.266Z,97.9
2024-03-06T10:40:30.678Z,98.2
2024-03-06T10:42:01.122Z,97.8
2024-03-06T10:43:31.621Z,98.5
2024-03-06T10:45:02.091Z,98
2024-03-06T10:46:32.589Z,97.4
2024-03-06T10:48:05.648Z,97.4
2024-03-06T10:49:36.470Z,97.4
2024-03-06T10:51:07.007Z,97.8
2024-03-06T10:52:37.428Z,97.3
2024-03-06T10:54:24.703Z,97.3
2024-03-06T10:55:55.174Z,97.5
2024-03-06T10:57:25.649Z,97.6
2024-03-06T10:58:56.079Z,97.6
2024-03-06T11:00:26.516Z,97.6
2024-03-06T11:01:56.980Z,98
2024-03-06T11:03:27.457Z,97.3
2024-03-06T11:04:57.953Z,97.3
2024-03-06T11:06:28.483Z,97.7
2024-03-06T11:07:58.905Z,97.4
2024-03-06T11:09:29.521Z,97.3
2024-03-06T11:11:00.132Z,97.4
2024-03-06T11:12:30.671Z,97.6
2024-03-06T11:14:01.222Z,97.6
2024-03-06T11:15:31.833Z,97.2
2024-03-06T11:17:02.304Z,97.3
2024-03-06T11:18:32.983Z,97.4
2024-03-06T11:20:03.913Z,96.9
2024-03-06T11:21:34.684Z,97.5
2024-03-06T11:23:05.223Z,97.4
2024-03-06T11:24:35.785Z,97.3
2024-03-06T11:26:06.593Z,97.4
2024-03-06T11:27:37.422Z,97.4
2024-03-06T11:29:07.942Z,97.4
2024-03-06T11:30:38.368Z,97.7
2024-03-06T11:32:09.198Z,97.6
2024-03-06T11:33:41.157Z,97.5
2024-03-06T11:35:12.410Z,97.2
2024-03-06T11:36:42.906Z,97.3
2024-03-06T11:38:13.346Z,97.3
2024-03-06T11:39:44.114Z,97.4
2024-03-06T11:41:14.596Z,97.2
2024-03-06T11:42:45.215Z,97.8
2024-03-06T11:44:15.685Z,97.6
2024-03-06T11:45:46.162Z,97.9
2024-03-06T11:47:18.803Z,98
2024-03-06T11:48:49.297Z,97.4
2024-03-06T11:50:19.872Z,97.8
2024-03-06T11:51:50.387Z,97.3
2024-03-06T11:53:20.871Z,97.6
2024-03-06T11:54:51.336Z,97.7
2024-03-06T11:56:21.869Z,97.6
2024-03-06T11:57:52.504Z,97.5
2024-03-06T11:59:22.983Z,98.1
2024-03-06T12:00:53.473Z,97.8
2024-03-06T12:02:24.026Z,97.7
2024-03-06T12:03:54.590Z,97.6
2024-03-06T12:05:25.270Z,97.7
2024-03-06T12:06:55.843Z,97.7
2024-03-06T12:08:26.263Z,97.7
2024-03-06T12:09:56.675Z,97.4
2024-03-06T12:11:27.573Z,97.7
2024-03-06T12:12:58.130Z,97.9
2024-03-06T12:14:28.611Z,97.6
2024-03-06T12:15:59.996Z,97.6
2024-03-06T12:17:34.497Z,97.9
2024-03-06T12:19:05.178Z,98
2024-03-06T12:20:35.867Z,97.8
2024-03-06T12:22:06.839Z,97.6
2024-03-06T12:23:37.486Z,97.5
2024-03-06T12:25:08.037Z,97.4
2024-03-06T12:26:38.550Z,97.8
2024-03-06T12:28:08.975Z,97.6
2024-03-06T12:29:39.676Z,98.2
2024-03-06T12:31:10.458Z,97.8
2024-03-06T12:32:41.076Z,97.4
2024-03-06T12:34:11.678Z,97.7
2024-03-06T12:35:42.210Z,97.8
2024-03-06T12:37:13.351Z,97.2
2024-03-06T12:38:44.112Z,97.6
2024-03-06T12:40:14.922Z,97.6
2024-03-06T12:41:48.155Z,97.2
2024-03-06T12:43:35.714Z,97.7
2024-03-06T12:45:06.283Z,97.6
2024-03-06T12:46:36.808Z,97.8
2024-03-06T12:48:07.570Z,97.8
2024-03-06T12:49:38.112Z,97.7
2024-03-06T12:51:08.789Z,98
2024-03-06T12:52:39.351Z,97.8
2024-03-06T12:54:09.859Z,97.7
2024-03-06T12:55:40.306Z,97.4
2024-03-06T12:57:14.759Z,98
2024-03-06T12:58:45.312Z,97.5
2024-03-06T13:00:15.807Z,97.7
2024-03-06T13:01:46.854Z,97.5
2024-03-06T13:03:17.316Z,97.3
2024-03-06T13:04:47.750Z,97.5
2024-03-06T13:06:18.444Z,97.8
2024-03-06T13:07:48.992Z,97.9
2024-03-06T13:09:19.412Z,97.6
2024-03-06T13:10:49.887Z,97.4
2024-03-06T13:12:20.691Z,97.4
2024-03-06T13:13:51.310Z,97.8
2024-03-06T13:15:21.692Z,97.8
2024-03-06T13:16:52.121Z,97.7
2024-03-06T13:18:22.827Z,97.8
2024-03-06T13:19:53.271Z,97.8
2024-03-06T13:21:23.795Z,97.6
2024-03-06T13:22:54.472Z,97.6
2024-03-06T13:24:24.950Z,97.7
2024-03-06T13:25:55.460Z,97.7
2024-03-06T13:27:25.997Z,98
2024-03-06T13:28:56.420Z,97.9
2024-03-06T13:30:26.821Z,98.1
2024-03-06T13:31:57.244Z,97.8
2024-03-06T13:33:27.781Z,97.9
2024-03-06T13:34:58.283Z,98.3
2024-03-06T13:36:28.796Z,98.4
2024-03-06T13:37:59.241Z,98.1
2024-03-06T13:39:29.856Z,97.6
2024-03-06T13:41:00.554Z,97.7
2024-03-06T13:42:31.026Z,97.7
2024-03-06T13:44:01.552Z,97.7
2024-03-06T13:45:32.158Z,98
2024-03-06T13:47:02.856Z,97.9
2024-03-06T13:48:33.473Z,98
2024-03-06T13:50:04.127Z,97.7
2024-03-06T13:51:34.752Z,97.7
2024-03-06T13:53:05.268Z,97.8
2024-03-06T13:54:35.795Z,98.2
2024-03-06T13:56:06.269Z,97.9
2024-03-06T13:57:36.761Z,97.8
2024-03-06T13:59:07.347Z,97.9
2024-03-06T14:00:37.814Z,97.9
2024-03-06T14:02:08.433Z,97.8
2024-03-06T14:03:39.142Z,97.7
2024-03-06T14:05:09.767Z,97.9
2024-03-06T14:06:40.272Z,97.8
2024-03-06T14:08:10.725Z,97.7
2024-03-06T14:09:41.116Z,97.9
2024-03-06T14:11:11.745Z,98.1
2024-03-06T14:12:42.265Z,98
2024-03-06T14:14:12.767Z,97.9
2024-03-06T14:15:43.257Z,97.8
2024-03-06T14:17:13.812Z,98.2
2024-03-06T14:18:44.362Z,97.7
2024-03-06T14:20:15.018Z,97.9
2024-03-06T14:21:45.709Z,97.7
2024-03-06T14:23:16.197Z,97.8
2024-03-06T14:24:46.768Z,97.5
2024-03-06T14:26:17.248Z,97.9
2024-03-06T14:27:47.699Z,97.9
2024-03-06T14:29:18.197Z,97.8
2024-03-06T14:30:48.750Z,97.7
2024-03-06T14:31:05.633Z,97.6
2024-03-06T14:32:36.450Z,97.8
2024-03-06T14:34:08.168Z,97.8
2024-03-06T14:35:38.764Z,98
2024-03-06T14:37:09.671Z,97.6
2024-03-06T14:38:40.284Z,98
2024-03-06T14:40:11.397Z,97.7
2024-03-06T14:41:41.927Z,97.6
2024-03-06T14:43:12.534Z,97.7
2024-03-06T14:44:43.213Z,97.7
2024-03-06T14:46:13.729Z,97.7
2024-03-06T14:47:44.336Z,97.6
2024-03-06T14:49:14.900Z,97.5
2024-03-06T14:50:45.444Z,97.9
2024-03-06T14:52:16.132Z,97.9
2024-03-06T14:53:46.746Z,97.8
2024-03-06T14:55:17.179Z,98.1
2024-03-06T14:56:47.786Z,98.2
2024-03-06T14:58:18.452Z,97.7
2024-03-06T14:59:50.371Z,97.7
2024-03-06T15:03:24.267Z,97.6
2024-03-06T15:04:54.671Z,97.8
2024-03-06T15:06:25.102Z,98
2024-03-06T15:07:55.614Z,97.5
2024-03-06T15:09:26.150Z,97.9
2024-03-06T15:10:56.715Z,97.9
2024-03-06T15:12:27.374Z,97.8
2024-03-06T15:13:57.915Z,97.6
2024-03-06T15:15:28.542Z,97.6
2024-03-06T15:16:59.170Z,98.1
2024-03-06T15:18:29.975Z,97.7
2024-03-06T15:20:00.608Z,97.6
2024-03-06T15:21:31.242Z,97.5
2024-03-06T15:23:01.966Z,97.9
2024-03-06T15:24:32.633Z,97.5
2024-03-06T15:26:03.173Z,97.8
2024-03-06T15:27:33.756Z,98
2024-03-06T15:29:04.223Z,97.5
2024-03-06T15:30:34.826Z,97.9
2024-03-06T15:32:05.378Z,97.9
2024-03-06T15:33:36.040Z,97.8
2024-03-06T15:35:06.550Z,97.8
2024-03-06T15:36:37.218Z,97.7
2024-03-06T15:38:07.922Z,97.8
2024-03-06T15:39:38.429Z,97.6
2024-03-06T15:41:08.911Z,97.6
2024-03-06T15:42:39.483Z,97.9
2024-03-06T15:44:10.029Z,98.2
2024-03-06T15:45:40.555Z,97.9
2024-03-06T15:47:12.463Z,97.6
2024-03-06T15:48:43.317Z,97.6
2024-03-06T15:50:14.204Z,98
2024-03-06T15:51:44.777Z,97.8
2024-03-06T15:53:15.516Z,97.8
2024-03-06T15:54:46.032Z,97.9
2024-03-06T15:56:16.604Z,97.9
2024-03-06T15:57:47.060Z,97.3
2024-03-06T15:59:17.559Z,97.7
2024-03-06T16:00:48.014Z,98
2024-03-06T16:02:18.505Z,97.6
2024-03-06T16:03:49.000Z,97.5
2024-03-06T16:05:19.519Z,97.9
2024-03-06T16:06:50.036Z,98.3
2024-03-06T16:08:20.933Z,98
2024-03-06T16:09:51.456Z,97.9
2024-03-06T16:12:57.697Z,98
2024-03-06T16:14:28.609Z,98.1
2024-03-06T16:15:59.060Z,97.7
2024-03-06T16:17:29.643Z,97.7
2024-03-06T16:19:00.338Z,98.1
2024-03-06T16:20:30.907Z,98.1
2024-03-06T16:22:01.471Z,97.7
2024-03-06T16:23:32.110Z,97.8
2024-03-06T16:25:02.730Z,98.2
2024-03-06T16:26:33.461Z,98
2024-03-06T16:28:04.079Z,97.7
2024-03-06T16:29:34.670Z,97.9
2024-03-06T16:31:05.253Z,97.9
2024-03-06T16:32:36.342Z,98
2024-03-06T16:34:06.886Z,97.7
2024-03-06T16:35:37.486Z,97.8
2024-03-06T16:37:08.182Z,97.7
2024-03-06T16:38:38.856Z,97.5
2024-03-06T16:40:09.417Z,97.8
2024-03-06T16:41:39.977Z,97.8
2024-03-06T16:43:10.525Z,98.2
2024-03-06T16:44:40.991Z,97.8
2024-03-06T16:46:11.457Z,97.5
2024-03-06T16:47:42.097Z,97.9
2024-03-06T16:49:12.715Z,98.1
2024-03-06T16:50:43.443Z,98.1
2024-03-06T16:52:14.084Z,98.1
2024-03-06T16:52:31.066Z,98
2024-03-06T16:54:02.167Z,97.6
2024-03-06T16:55:32.772Z,97.9
2024-03-06T16:57:03.222Z,97.9
2024-03-06T16:58:33.760Z,97.9
2024-03-06T17:00:07.340Z,97.9
2024-03-06T17:01:39.474Z,98
2024-03-06T17:03:10.100Z,97.9
2024-03-06T17:04:40.619Z,98.2
2024-03-06T17:06:11.057Z,97.8
2024-03-06T17:07:41.453Z,98.3
2024-03-06T17:09:11.975Z,98.1
2024-03-06T17:10:42.440Z,98.3
2024-03-06T17:12:13.040Z,98.2
2024-03-06T17:13:43.648Z,97.9
2024-03-06T17:15:14.089Z,97.7
2024-03-06T17:16:44.499Z,98
2024-03-06T17:18:15.026Z,98
2024-03-06T17:19:45.640Z,97.8
2024-03-06T17:21:16.077Z,97.9
2024-03-06T17:22:46.492Z,98.2
2024-03-06T17:24:16.995Z,98
2024-03-06T17:25:47.574Z,98.1
2024-03-06T17:27:18.046Z,98.3
2024-03-06T17:28:52.570Z,98.1
2024-03-06T17:30:23.406Z,98.2
2024-03-06T17:31:53.817Z,98.1
2024-03-06T17:33:24.319Z,98.5
2024-03-06T17:34:54.853Z,98.1
2024-03-06T17:36:25.285Z,98.4
2024-03-06T17:37:55.694Z,98.2
2024-03-06T17:39:26.213Z,98.5
2024-03-06T17:40:56.639Z,98.1
2024-03-06T17:42:27.062Z,98.2
2024-03-06T17:43:57.529Z,98.3
2024-03-06T17:45:28.023Z,98.5
2024-03-06T17:46:58.421Z,98.6
2024-03-06T17:48:29.021Z,98.4
2024-03-06T17:49:59.581Z,98.4
2024-03-06T17:51:30.010Z,98.2
2024-03-06T17:53:00.409Z,98.2
2024-03-06T17:54:31.007Z,98.6
2024-03-06T17:56:01.456Z,98.5
2024-03-06T17:57:31.870Z,98.4
2024-03-06T17:59:02.316Z,98.5
2024-03-06T18:00:32.723Z,98.2
2024-03-06T18:02:03.209Z,98.3
2024-03-06T18:03:33.856Z,98.4
2024-03-06T18:05:04.315Z,98.2
2024-03-06T18:06:34.915Z,98.7
2024-03-06T18:08:05.414Z,98.7
2024-03-06T18:09:36.056Z,98.5
2024-03-06T18:11:06.670Z,98.6
2024-03-06T18:12:37.230Z,98.5
2024-03-06T18:14:07.777Z,98.6
2024-03-06T18:15:38.240Z,98.5
2024-03-06T18:17:08.757Z,98.4
2024-03-06T18:18:39.310Z,98.7
2024-03-06T18:20:10.091Z,98.8
2024-03-06T18:21:42.809Z,98.6
2024-03-06T18:23:17.495Z,98.6
2024-03-06T18:24:48.038Z,98.5
2024-03-06T18:26:18.636Z,98.7
2024-03-06T18:27:49.196Z,98.7
2024-03-06T18:29:19.615Z,98.6
2024-03-06T18:30:50.175Z,98.7
2024-03-06T18:32:20.683Z,98.5
2024-03-06T18:33:51.171Z,98.5
2024-03-06T18:35:21.643Z,98.6
2024-03-06T18:36:52.130Z,98.4
2024-03-06T18:38:22.608Z,98.7
2024-03-06T18:39:53.340Z,98.5
2024-03-06T18:41:23.979Z,98.6
2024-03-06T18:41:41.325Z,98.7
2024-03-06T18:43:11.813Z,98.5
2024-03-06T18:44:42.324Z,98.3
2024-03-06T18:46:12.759Z,98.7
2024-03-06T18:47:43.260Z,98.3
2024-03-06T18:49:13.902Z,98.3
2024-03-06T18:50:44.450Z,98.3
2024-03-06T18:52:14.874Z,98.6
2024-03-06T18:53:45.335Z,98.4
2024-03-06T18:55:16.008Z,98.3
2024-03-06T18:56:46.611Z,98.2
2024-03-06T18:58:17.153Z,98.2
2024-03-06T18:59:47.759Z,98.3
2024-03-06T19:01:18.550Z,98.3
2024-03-06T19:02:49.155Z,98.5
2024-03-06T19:04:19.641Z,98.5
2024-03-06T19:05:54.603Z,98.5
2024-03-06T19:07:25.760Z,98.3
2024-03-06T19:08:56.301Z,98.5
2024-03-06T19:10:27.016Z,98.6
2024-03-06T19:11:57.690Z,98.2
2024-03-06T19:13:28.410Z,98.6
2024-03-06T19:14:58.848Z,98.4
2024-03-06T19:16:29.265Z,98.5
2024-03-06T19:17:59.858Z,98.3
2024-03-06T19:19:30.514Z,98.3
2024-03-06T19:21:01.016Z,98.5
2024-03-06T19:22:31.444Z,98.3
2024-03-06T19:24:01.914Z,98.3
2024-03-06T19:25:32.488Z,98.1
2024-03-06T19:27:03.028Z,98.6
2024-03-06T19:28:33.568Z,98.6
2024-03-06T19:30:04.067Z,98.5
2024-03-06T19:31:37.402Z,98.2
2024-03-06T19:33:07.930Z,98.3
2024-03-06T19:34:38.504Z,98.3
2024-03-06T19:36:08.912Z,98.5
2024-03-06T19:37:39.343Z,98.5
2024-03-06T19:39:09.912Z,98.3
2024-03-06T19:40:40.690Z,98.5
2024-03-06T19:42:11.230Z,98.7
2024-03-06T19:43:41.882Z,98.5
2024-03-06T19:45:12.360Z,98.6
2024-03-06T19:46:42.781Z,98.2
2024-03-06T19:48:13.328Z,98.4
2024-03-06T19:49:43.939Z,98.5
2024-03-06T19:51:17.806Z,98.5
2024-03-06T19:52:48.366Z,98.2
2024-03-06T19:54:18.765Z,98.7
2024-03-06T19:55:49.292Z,98.6
2024-03-06T19:57:19.844Z,98.3
2024-03-06T19:58:50.347Z,98.5
2024-03-06T20:00:20.864Z,98.4
2024-03-06T20:01:51.455Z,98.2
2024-03-06T20:03:21.967Z,98.3
2024-03-06T20:04:52.453Z,98.4
2024-03-06T20:06:22.841Z,98.2
2024-03-06T20:07:53.283Z,98.2
2024-03-06T20:09:23.680Z,98.4
2024-03-06T20:10:54.248Z,98
2024-03-06T20:12:24.822Z,98.2
2024-03-06T20:13:57.959Z,98.2
2024-03-06T20:15:28.442Z,98.2
2024-03-06T20:16:58.913Z,98.3
2024-03-06T20:18:29.448Z,98.3
2024-03-06T20:20:01.701Z,98.4
2024-03-06T20:21:32.190Z,98.4
2024-03-06T20:23:02.596Z,98.2
2024-03-06T20:24:33.133Z,98.2
2024-03-06T20:26:03.638Z,98.2
2024-03-06T20:27:34.157Z,98.1
2024-03-06T20:29:04.583Z,98.2
2024-03-06T20:30:35.010Z,98.3
2024-03-06T20:33:53.937Z,98.3
2024-03-06T20:35:24.391Z,98.3
2024-03-06T20:36:54.985Z,98.1
2024-03-06T20:38:27.124Z,98.1
2024-03-06T20:39:57.676Z,98.1
2024-03-06T20:41:28.411Z,98.1
2024-03-06T20:42:58.905Z,98.2
2024-03-06T20:44:29.410Z,97.9
2024-03-06T20:45:59.845Z,98
2024-03-06T20:47:30.457Z,97.8
2024-03-06T20:49:01.001Z,97.9
2024-03-06T20:50:31.449Z,97.7
2024-03-06T20:52:03.379Z,98
2024-03-06T20:53:34.049Z,98.2
2024-03-06T20:55:04.641Z,97.8
2024-03-06T20:56:35.393Z,97.9
2024-03-06T20:58:05.976Z,98
2024-03-06T20:59:36.454Z,97.8
2024-03-06T21:01:07.089Z,97.5
2024-03-06T21:02:37.635Z,97.6
2024-03-06T21:04:08.209Z,97.7
2024-03-06T21:05:38.833Z,97.7
2024-03-06T21:07:09.417Z,97.4
2024-03-06T21:08:39.918Z,97.4